Time;durP1;ratioP1;P1;durP2;ratioP2;P2;SDS_P1;SDS_P2;PMS_P1;PMS_P2;Temp;Humidity;BMP_temperature;BMP_pressure;BME280_temperature;BME280_humidity;BME280_pressure;Samples;Min_cycle;Max_cycle;Signal;HPM_P1;HPM_P2
2023/04/02 00:01:35;;;;;;;9.80;8.48;;;10.30;99.90;;;;;;4933631;29;20036;-67
2023/04/02 00:04:02;;;;;;;9.40;8.43;;;10.20;99.90;;;;;;4930863;29;20106;-68
2023/04/02 00:06:34;;;;;;;11.82;9.77;;;10.20;99.90;;;;;;4926132;29;20187;-72
2023/04/02 00:09:20;;;;;;;12.02;8.93;;;10.20;99.90;;;;;;4934937;29;20040;-68
2023/04/02 00:11:48;;;;;;;10.23;8.60;;;10.20;99.90;;;;;;4932401;29;20028;-68
2023/04/02 00:14:33;;;;;;;10.25;8.43;;;10.10;99.90;;;;;;4931288;29;20027;-68
2023/04/02 00:17:03;;;;;;;10.27;8.85;;;10.10;99.90;;;;;;4928485;29;20043;-68
2023/04/02 00:19:56;;;;;;;9.68;8.70;;;10.00;99.90;;;;;;4930468;29;20047;-67
2023/04/02 00:22:27;;;;;;;8.65;7.85;;;10.00;99.90;;;;;;4928496;29;20082;-67
2023/04/02 00:24:55;;;;;;;9.38;8.30;;;9.90;99.90;;;;;;4929849;29;20391;-68
2023/04/02 00:27:20;;;;;;;9.70;8.55;;;9.90;99.90;;;;;;4930831;29;20083;-67
2023/04/02 00:29:52;;;;;;;8.93;8.07;;;10.00;99.90;;;;;;4927155;29;20028;-67
2023/04/02 00:32:23;;;;;;;9.27;8.35;;;9.90;99.90;;;;;;4931004;29;20031;-68
2023/04/02 00:34:49;;;;;;;9.25;8.38;;;10.00;99.90;;;;;;4926451;29;20032;-67
2023/04/02 00:37:22;;;;;;;8.05;7.28;;;9.80;99.90;;;;;;4931810;29;20485;-68
2023/04/02 00:39:56;;;;;;;14.52;8.40;;;9.80;99.90;;;;;;4929137;29;20031;-68
2023/04/02 00:42:24;;;;;;;9.75;8.75;;;9.80;99.90;;;;;;4923470;29;20159;-70
2023/04/02 00:44:50;;;;;;;8.60;7.80;;;9.70;99.90;;;;;;4931335;29;20433;-68
2023/04/02 00:47:21;;;;;;;8.48;7.53;;;9.70;99.90;;;;;;4931810;29;20035;-67
2023/04/02 00:49:53;;;;;;;8.38;7.57;;;9.70;99.90;;;;;;4931365;29;20028;-67
2023/04/02 00:52:23;;;;;;;8.88;7.53;;;9.70;99.90;;;;;;4926683;29;20020;-68
2023/04/02 00:55:12;;;;;;;8.85;8.00;;;9.80;99.90;;;;;;4926120;29;20031;-68
2023/04/02 00:57:41;;;;;;;8.82;8.00;;;9.90;99.90;;;;;;4937478;29;20027;-74
2023/04/02 01:00:17;;;;;;;17.70;7.68;;;9.80;99.90;;;;;;4927960;29;20036;-74
2023/04/02 01:03:03;;;;;;;8.75;7.90;;;9.80;99.90;;;;;;4930215;29;20020;-67
2023/04/02 01:05:33;;;;;;;8.98;8.07;;;9.90;99.90;;;;;;4926638;29;20385;-68
2023/04/02 01:08:11;;;;;;;9.07;8.18;;;9.90;99.90;;;;;;4935180;29;20028;-72
2023/04/02 01:10:42;;;;;;;7.95;7.25;;;9.90;99.90;;;;;;4922028;29;20032;-77
2023/04/02 01:13:08;;;;;;;9.93;8.32;;;9.90;99.90;;;;;;4929628;29;20036;-75
2023/04/02 01:15:41;;;;;;;9.07;8.18;;;9.90;99.90;;;;;;4924324;29;20043;-75
2023/04/02 01:18:32;;;;;;;11.20;9.88;;;9.90;99.90;;;;;;4930561;29;20047;-69
2023/04/02 01:21:21;;;;;;;12.65;7.82;;;9.80;99.90;;;;;;4930325;29;20035;-68
2023/04/02 01:23:51;;;;;;;9.38;8.48;;;9.60;99.90;;;;;;4926858;29;20392;-75
2023/04/02 01:26:32;;;;;;;8.77;7.82;;;9.70;99.90;;;;;;4927530;29;20437;-78
2023/04/02 01:29:18;;;;;;;8.23;7.40;;;9.70;99.90;;;;;;4927577;29;20027;-68
2023/04/02 01:31:46;;;;;;;14.52;9.07;;;9.70;99.90;;;;;;4928840;29;20067;-68
2023/04/02 01:34:15;;;;;;;10.35;9.25;;;9.80;99.90;;;;;;4928871;29;20067;-67
2023/04/02 01:36:52;;;;;;;8.73;7.82;;;9.80;99.90;;;;;;4926664;29;20024;-68
2023/04/02 01:39:36;;;;;;;10.77;8.30;;;9.80;99.90;;;;;;4927192;29;20031;-68
2023/04/02 01:42:12;;;;;;;10.73;9.63;;;9.90;99.90;;;;;;4931305;29;20031;-68
2023/04/02 01:44:48;;;;;;;12.45;11.20;;;9.90;99.90;;;;;;4931871;29;20031;-68
2023/04/02 01:47:16;;;;;;;13.25;11.85;;;9.80;99.90;;;;;;4936045;29;20019;-69
2023/04/02 01:49:43;;;;;;;13.50;11.95;;;9.90;99.90;;;;;;4935821;29;20114;-67
2023/04/02 01:52:16;;;;;;;16.75;13.15;;;9.90;99.90;;;;;;4937018;29;20031;-68
2023/04/02 01:54:42;;;;;;;16.27;12.43;;;10.00;99.90;;;;;;4932415;29;20020;-68
2023/04/02 01:57:09;;;;;;;14.52;13.02;;;10.00;99.90;;;;;;4931912;29;20052;-68
2023/04/02 01:59:35;;;;;;;14.23;12.63;;;9.90;99.90;;;;;;4931252;29;20028;-68
2023/04/02 02:02:02;;;;;;;18.38;13.60;;;9.90;99.90;;;;;;4932486;29;20079;-67
2023/04/02 02:04:29;;;;;;;16.45;13.27;;;9.90;99.90;;;;;;4933565;29;20079;-67
2023/04/02 02:06:57;;;;;;;17.63;13.23;;;9.90;99.90;;;;;;4931409;29;20051;-67
2023/04/02 02:09:27;;;;;;;18.35;14.02;;;9.90;99.90;;;;;;4928761;29;20028;-67
2023/04/02 02:11:55;;;;;;;16.73;13.75;;;9.80;99.90;;;;;;4933883;29;20532;-68
2023/04/02 02:14:24;;;;;;;19.33;14.15;;;9.80;99.90;;;;;;4929621;29;20032;-67
2023/04/02 02:16:52;;;;;;;18.02;14.15;;;9.70;99.90;;;;;;4932215;29;20039;-68
2023/04/02 02:19:33;;;;;;;17.55;13.77;;;9.70;99.90;;;;;;4926808;29;20027;-68
2023/04/02 02:22:07;;;;;;;14.70;11.90;;;9.70;99.90;;;;;;4932107;29;20035;-68
2023/04/02 02:24:34;;;;;;;13.52;12.13;;;9.60;99.90;;;;;;4930524;29;20405;-68
2023/04/02 02:27:03;;;;;;;13.02;11.02;;;9.70;99.90;;;;;;4926495;29;20060;-67
2023/04/02 02:29:32;;;;;;;12.18;10.45;;;9.50;99.90;;;;;;4930808;29;20027;-68
2023/04/02 02:31:59;;;;;;;11.93;10.32;;;9.50;99.90;;;;;;4933119;29;20465;-69
2023/04/02 02:34:35;;;;;;;13.35;10.82;;;9.60;99.90;;;;;;4923171;29;20017;-68
2023/04/02 02:37:09;;;;;;;10.52;9.48;;;9.60;99.90;;;;;;4932919;29;20028;-67
2023/04/02 02:39:43;;;;;;;9.90;8.75;;;9.50;99.90;;;;;;4934039;29;20373;-68
2023/04/02 02:42:33;;;;;;;7.75;6.82;;;9.50;99.90;;;;;;4935094;29;20373;-68
2023/04/02 02:45:03;;;;;;;8.18;7.07;;;9.40;99.90;;;;;;4925208;29;20071;-68
2023/04/02 02:47:32;;;;;;;8.35;7.32;;;9.30;99.90;;;;;;4934940;29;20020;-67
2023/04/02 02:50:20;;;;;;;7.70;6.57;;;9.40;99.90;;;;;;4936075;29;20024;-68
2023/04/02 02:52:51;;;;;;;6.63;5.93;;;9.40;99.90;;;;;;4929285;29;20019;-69
2023/04/02 02:55:22;;;;;;;7.72;6.93;;;9.40;99.90;;;;;;4929103;29;20024;-68
2023/04/02 02:57:54;;;;;;;9.27;7.95;;;9.40;99.90;;;;;;4928881;29;20067;-68
2023/04/02 03:00:23;;;;;;;13.15;9.18;;;9.40;99.90;;;;;;4926580;29;20019;-68
2023/04/02 03:02:52;;;;;;;11.18;9.13;;;9.30;99.90;;;;;;4931998;29;20040;-69
2023/04/02 03:05:22;;;;;;;11.15;9.88;;;9.20;99.90;;;;;;4929042;29;20027;-68
2023/04/02 03:07:52;;;;;;;9.73;8.60;;;9.20;99.90;;;;;;4928271;29;20482;-68
2023/04/02 03:10:23;;;;;;;11.43;8.00;;;9.10;99.90;;;;;;4923700;29;20035;-68
2023/04/02 03:13:21;;;;;;;10.57;6.97;;;9.10;99.90;;;;;;4933301;29;20028;-68
2023/04/02 03:16:10;;;;;;;6.57;5.53;;;9.00;99.90;;;;;;4927280;29;20032;-68
2023/04/02 03:18:48;;;;;;;7.50;6.05;;;9.00;99.90;;;;;;4927767;29;20055;-68
2023/04/02 03:21:24;;;;;;;6.38;5.78;;;8.90;99.90;;;;;;4934856;29;20027;-68
2023/04/02 03:24:29;;;;;;;6.22;5.40;;;8.90;99.90;;;;;;4930920;29;20425;-68
2023/04/02 03:27:08;;;;;;;6.15;5.55;;;9.00;99.90;;;;;;4929418;29;20088;-68
2023/04/02 03:29:39;;;;;;;7.22;6.53;;;8.80;99.90;;;;;;4927695;29;20043;-69
2023/04/02 03:32:15;;;;;;;8.35;7.32;;;8.80;99.90;;;;;;4934467;29;20016;-68
2023/04/02 03:34:50;;;;;;;8.25;7.28;;;8.70;99.90;;;;;;4920829;29;20024;-68
2023/04/02 03:37:29;;;;;;;8.95;7.13;;;8.70;99.90;;;;;;4931559;29;20063;-68
2023/04/02 03:40:09;;;;;;;8.15;7.22;;;8.70;99.90;;;;;;4936637;29;20078;-68
2023/04/02 03:42:42;;;;;;;9.25;7.00;;;8.60;99.90;;;;;;4932961;29;20046;-68
2023/04/02 03:45:17;;;;;;;7.22;6.50;;;8.50;99.90;;;;;;4925978;29;20123;-69
2023/04/02 03:47:48;;;;;;;8.05;6.78;;;8.30;99.90;;;;;;4927935;29;20052;-68
2023/04/02 03:50:44;;;;;;;7.68;6.88;;;8.50;99.90;;;;;;4927339;29;20059;-71
2023/04/02 03:53:11;;;;;;;10.38;7.45;;;8.60;99.90;;;;;;4930335;29;20043;-69
2023/04/02 03:55:39;;;;;;;8.27;7.43;;;8.60;99.90;;;;;;4926966;29;20050;-68
2023/04/02 03:58:43;;;;;;;8.93;7.20;;;8.70;99.90;;;;;;4927414;29;20039;-68
2023/04/02 04:01:38;;;;;;;10.25;7.55;;;8.70;99.90;;;;;;4921765;29;20035;-68
2023/04/02 04:04:13;;;;;;;11.02;8.55;;;8.80;99.90;;;;;;4927482;29;20441;-71
2023/04/02 04:06:42;;;;;;;12.35;8.52;;;8.80;99.90;;;;;;4927208;29;20028;-68
2023/04/02 04:09:23;;;;;;;12.25;8.60;;;8.70;99.90;;;;;;4924881;29;20063;-68
2023/04/02 04:11:55;;;;;;;11.90;8.27;;;8.70;99.90;;;;;;4926925;29;20107;-68
2023/04/02 04:14:31;;;;;;;13.05;9.35;;;8.70;99.90;;;;;;4929997;29;20035;-68
2023/04/02 04:17:22;;;;;;;12.77;8.90;;;8.60;99.90;;;;;;4925412;29;20062;-68
2023/04/02 04:20:33;;;;;;;12.05;9.18;;;8.50;99.90;;;;;;4927367;29;20059;-68
2023/04/02 04:23:24;;;;;;;11.95;8.70;;;8.70;99.90;;;;;;4922517;29;20047;-68
2023/04/02 04:26:04;;;;;;;12.98;8.60;;;8.80;99.90;;;;;;4934590;29;20086;-68
2023/04/02 04:29:04;;;;;;;12.55;9.15;;;8.80;99.90;;;;;;4920123;29;20072;-68
2023/04/02 04:31:38;;;;;;;12.80;9.50;;;8.90;99.90;;;;;;4933440;29;20487;-68
2023/04/02 04:34:14;;;;;;;15.13;9.68;;;9.00;99.90;;;;;;4931118;29;20106;-68
2023/04/02 04:37:06;;;;;;;16.73;10.02;;;9.00;99.90;;;;;;4922913;29;20028;-68
2023/04/02 04:39:37;;;;;;;13.57;9.73;;;8.90;99.90;;;;;;4926135;29;20036;-69
2023/04/02 04:42:05;;;;;;;14.65;9.95;;;8.80;99.90;;;;;;4926180;29;20031;-68
2023/04/02 04:44:57;;;;;;;15.55;9.88;;;8.80;99.90;;;;;;4924319;29;20036;-68
2023/04/02 04:47:34;;;;;;;10.93;9.27;;;8.70;99.90;;;;;;4927061;29;20033;-68
2023/04/02 04:50:34;;;;;;;13.85;9.35;;;8.70;99.90;;;;;;4924180;29;20036;-68
2023/04/02 04:53:12;;;;;;;11.43;9.23;;;8.60;99.90;;;;;;4928777;29;20040;-69
2023/04/02 04:55:50;;;;;;;10.60;8.55;;;8.50;99.90;;;;;;4924688;29;20024;-68
2023/04/02 04:58:20;;;;;;;11.27;8.85;;;8.50;99.90;;;;;;4923016;29;20107;-69
2023/04/02 05:00:55;;;;;;;12.45;8.70;;;8.40;99.90;;;;;;4927160;29;20032;-69
2023/04/02 05:03:47;;;;;;;12.40;9.23;;;8.50;99.90;;;;;;4922637;29;20067;-69
2023/04/02 05:06:37;;;;;;;12.60;8.75;;;8.50;99.90;;;;;;4927381;29;20130;-69
2023/04/02 05:09:41;;;;;;;12.30;8.65;;;8.50;99.90;;;;;;4924896;29;20405;-69
2023/04/02 05:12:20;;;;;;;12.02;9.05;;;8.50;99.90;;;;;;4930277;29;20062;-69
2023/04/02 05:15:03;;;;;;;14.55;10.35;;;8.60;99.90;;;;;;4921865;29;20489;-69
2023/04/02 05:17:46;;;;;;;16.83;11.65;;;8.50;99.90;;;;;;4924190;29;20028;-70
2023/04/02 05:20:19;;;;;;;17.52;11.80;;;8.40;99.90;;;;;;4933159;29;20047;-69
2023/04/02 05:23:11;;;;;;;17.75;11.65;;;8.40;99.90;;;;;;4931927;29;20032;-70
2023/04/02 05:26:03;;;;;;;16.38;11.80;;;8.40;99.90;;;;;;4933419;29;20102;-69
2023/04/02 05:28:49;;;;;;;18.60;12.20;;;8.40;99.90;;;;;;4927163;29;20111;-69
2023/04/02 05:31:18;;;;;;;21.23;13.65;;;8.40;99.90;;;;;;4929890;29;20031;-70
2023/04/02 05:33:46;;;;;;;26.45;14.00;;;8.30;99.90;;;;;;4926552;29;20118;-70
2023/04/02 05:36:19;;;;;;;19.75;13.43;;;8.40;99.90;;;;;;4928811;29;20035;-70
2023/04/02 05:38:46;;;;;;;20.85;13.27;;;8.50;99.90;;;;;;4932334;29;20042;-70
2023/04/02 05:41:39;;;;;;;23.88;13.38;;;8.40;99.90;;;;;;4927476;29;20040;-70
2023/04/02 05:44:16;;;;;;;20.33;12.90;;;8.40;99.90;;;;;;4931949;29;20023;-69
2023/04/02 05:46:54;;;;;;;20.58;14.30;;;8.40;99.90;;;;;;4933906;29;20071;-69
2023/04/02 05:49:30;;;;;;;16.73;11.98;;;8.30;99.90;;;;;;4928949;29;20043;-70
2023/04/02 05:51:59;;;;;;;20.13;13.20;;;8.10;99.90;;;;;;4929004;29;20051;-70
2023/04/02 05:54:56;;;;;;;20.48;12.05;;;8.30;99.90;;;;;;4923989;29;20393;-70
2023/04/02 05:57:35;;;;;;;15.65;11.88;;;8.20;99.90;;;;;;4932111;29;20042;-70
2023/04/02 06:00:06;;;;;;;20.00;12.57;;;8.30;99.90;;;;;;4927188;29;20539;-70
2023/04/02 06:02:53;;;;;;;17.45;12.35;;;8.30;99.90;;;;;;4927575;29;20024;-70
2023/04/02 06:05:27;;;;;;;18.05;11.75;;;8.20;99.90;;;;;;4921634;29;20043;-70
2023/04/02 06:08:10;;;;;;;20.50;12.15;;;7.90;99.90;;;;;;4929017;29;20479;-70
2023/04/02 06:10:57;;;;;;;18.45;11.00;;;7.80;99.90;;;;;;4933805;29;20034;-70
2023/04/02 06:13:24;;;;;;;20.98;11.35;;;7.80;99.90;;;;;;4928502;29;20027;-70
2023/04/02 06:15:49;;;;;;;15.77;10.93;;;7.80;99.90;;;;;;4926755;29;20028;-70
2023/04/02 06:18:19;;;;;;;18.40;11.15;;;7.90;99.90;;;;;;4931590;29;20430;-70
2023/04/02 06:20:45;;;;;;;14.40;10.57;;;7.80;99.90;;;;;;4925528;29;20082;-70
2023/04/02 06:23:23;;;;;;;23.63;11.48;;;7.80;99.90;;;;;;4928400;29;20024;-69
2023/04/02 06:26:04;;;;;;;23.98;11.27;;;7.90;99.90;;;;;;4940786;28;20036;-70
2023/04/02 06:29:13;;;;;;;14.52;10.15;;;7.80;99.90;;;;;;4926710;29;20032;-70
2023/04/02 06:31:46;;;;;;;15.18;10.65;;;7.90;99.90;;;;;;4931722;29;20441;-69
2023/04/02 06:34:18;;;;;;;15.40;10.27;;;7.80;99.90;;;;;;4926509;29;20030;-69
2023/04/02 06:36:45;;;;;;;16.13;10.57;;;7.70;99.90;;;;;;4930086;29;20183;-73
2023/04/02 06:39:19;;;;;;;16.48;10.48;;;7.80;99.90;;;;;;4925974;29;20036;-69
2023/04/02 06:41:45;;;;;;;15.55;9.85;;;7.90;99.90;;;;;;4930095;29;20035;-69
2023/04/02 06:44:19;;;;;;;17.50;10.43;;;7.90;99.90;;;;;;4925924;28;20042;-69
2023/04/02 06:46:55;;;;;;;15.75;9.73;;;7.90;99.90;;;;;;4928771;29;20032;-69
2023/04/02 06:49:49;;;;;;;16.42;11.13;;;8.00;99.90;;;;;;4923183;29;20027;-68
2023/04/02 06:52:22;;;;;;;21.13;10.30;;;8.00;99.90;;;;;;4932386;29;20625;-70
2023/04/02 06:54:48;;;;;;;16.58;10.48;;;8.00;99.90;;;;;;4925678;29;20035;-71
2023/04/02 06:57:14;;;;;;;21.48;11.35;;;7.90;99.90;;;;;;4931229;29;20024;-71
2023/04/02 06:59:40;;;;;;;14.93;10.20;;;7.90;99.90;;;;;;4923278;29;20035;-71
2023/04/02 07:02:36;;;;;;;16.50;10.70;;;7.90;99.90;;;;;;4930530;29;20024;-72
2023/04/02 07:05:07;;;;;;;16.60;10.70;;;8.00;99.90;;;;;;4923423;29;20486;-70
2023/04/02 07:07:33;;;;;;;17.42;10.05;;;7.90;99.90;;;;;;4930357;29;20374;-70
2023/04/02 07:09:59;;;;;;;18.83;9.73;;;7.90;99.90;;;;;;4924518;29;20028;-70
2023/04/02 07:12:25;;;;;;;14.13;9.20;;;8.00;99.90;;;;;;4931524;29;20024;-70
2023/04/02 07:14:52;;;;;;;13.93;9.68;;;8.00;99.90;;;;;;4924438;28;20043;-70
2023/04/02 07:17:19;;;;;;;13.05;8.73;;;7.90;99.90;;;;;;4927300;29;20075;-70
2023/04/02 07:19:48;;;;;;;15.80;9.00;;;7.90;99.90;;;;;;4922401;29;20059;-70
2023/04/02 07:22:18;;;;;;;15.90;9.27;;;7.80;99.90;;;;;;4930610;29;20031;-70
2023/04/02 07:24:44;;;;;;;13.70;8.18;;;7.90;99.90;;;;;;4932112;29;20564;-70
2023/04/02 07:27:11;;;;;;;15.30;8.18;;;7.80;99.90;;;;;;4927485;29;20074;-71
2023/04/02 07:29:41;;;;;;;15.50;8.43;;;7.80;99.90;;;;;;4930027;29;20099;-71
2023/04/02 07:32:08;;;;;;;14.52;8.30;;;7.90;99.90;;;;;;4929538;29;20024;-71
2023/04/02 07:34:34;;;;;;;11.73;8.38;;;8.00;99.90;;;;;;4927534;29;20387;-72
2023/04/02 07:37:01;;;;;;;12.80;8.63;;;7.90;99.90;;;;;;4927704;29;20113;-71
2023/04/02 07:39:27;;;;;;;14.32;9.27;;;8.00;99.90;;;;;;4926021;29;20039;-72
2023/04/02 07:41:55;;;;;;;14.60;8.70;;;8.00;99.90;;;;;;4921898;29;20031;-70
2023/04/02 07:44:20;;;;;;;16.95;10.32;;;8.00;99.90;;;;;;4923878;29;20040;-70
2023/04/02 07:46:46;;;;;;;12.32;9.73;;;7.90;99.90;;;;;;4927344;29;20031;-70
2023/04/02 07:49:12;;;;;;;19.00;9.57;;;7.80;99.90;;;;;;4922671;29;20393;-70
2023/04/02 07:51:37;;;;;;;13.60;7.82;;;7.70;99.90;;;;;;4932703;29;20024;-70
2023/04/02 07:54:03;;;;;;;12.18;8.55;;;7.90;99.90;;;;;;4925121;29;20110;-69
2023/04/02 07:56:30;;;;;;;14.57;8.70;;;8.00;99.90;;;;;;4930866;29;20024;-70
2023/04/02 07:58:56;;;;;;;18.92;8.55;;;8.10;99.90;;;;;;4929542;28;20024;-70
2023/04/02 08:01:24;;;;;;;13.07;8.30;;;8.10;99.90;;;;;;4932416;29;20032;-70
2023/04/02 08:03:51;;;;;;;15.38;8.02;;;8.10;99.90;;;;;;4926842;29;20028;-70
2023/04/02 08:06:17;;;;;;;13.48;7.55;;;8.10;99.90;;;;;;4930142;29;20031;-69
2023/04/02 08:08:42;;;;;;;11.65;7.63;;;8.20;99.90;;;;;;4924130;29;20020;-70
2023/04/02 08:11:08;;;;;;;10.40;7.38;;;7.90;99.90;;;;;;4927856;29;20027;-70
2023/04/02 08:13:34;;;;;;;9.48;6.82;;;7.90;99.90;;;;;;4924691;29;20032;-70
2023/04/02 08:16:01;;;;;;;9.95;6.65;;;7.90;99.90;;;;;;4927232;29;20052;-70
2023/04/02 08:18:28;;;;;;;12.68;6.80;;;7.70;99.90;;;;;;4923827;29;20075;-69
2023/04/02 08:20:54;;;;;;;12.52;6.72;;;7.70;99.90;;;;;;4929765;29;20020;-70
2023/04/02 08:23:20;;;;;;;12.48;6.55;;;7.70;99.90;;;;;;4926301;29;20123;-71
2023/04/02 08:25:47;;;;;;;10.52;5.97;;;7.70;99.90;;;;;;4926770;29;20071;-70
2023/04/02 08:28:12;;;;;;;10.50;5.60;;;7.80;99.90;;;;;;4925880;29;20036;-70
2023/04/02 08:30:38;;;;;;;9.73;5.85;;;7.80;99.90;;;;;;4926500;29;20385;-70
2023/04/02 08:33:05;;;;;;;13.30;6.53;;;7.70;99.90;;;;;;4922850;29;20818;-70
2023/04/02 08:35:31;;;;;;;10.05;5.40;;;7.80;99.90;;;;;;4926498;29;20023;-70
2023/04/02 08:37:57;;;;;;;8.30;5.20;;;7.60;99.90;;;;;;4926281;29;20482;-70
2023/04/02 08:40:36;;;;;;;10.50;5.07;;;7.60;99.90;;;;;;4921178;29;20030;-70
2023/04/02 08:43:07;;;;;;;10.00;5.55;;;7.60;99.90;;;;;;4928921;29;20028;-70
2023/04/02 08:45:55;;;;;;;12.13;5.53;;;7.60;99.90;;;;;;4923671;29;20036;-70
2023/04/02 08:48:22;;;;;;;10.63;5.35;;;7.60;99.90;;;;;;4924791;29;20023;-70
2023/04/02 08:50:48;;;;;;;10.82;5.90;;;7.60;99.90;;;;;;4922709;29;20024;-69
2023/04/02 08:53:22;;;;;;;8.60;5.10;;;7.60;99.90;;;;;;4927935;29;20027;-70
2023/04/02 08:55:56;;;;;;;8.70;5.57;;;7.50;99.90;;;;;;4923413;29;20024;-69
2023/04/02 08:58:56;;;;;;;12.10;4.78;;;7.50;99.90;;;;;;4928811;29;20066;-69
2023/04/02 09:01:25;;;;;;;8.88;4.85;;;7.70;99.90;;;;;;4935713;29;20492;-69
2023/04/02 09:03:54;;;;;;;7.30;3.88;;;7.50;99.90;;;;;;4923141;29;20106;-70
2023/04/02 09:06:21;;;;;;;6.43;3.80;;;7.40;99.90;;;;;;4926993;29;20038;-70
2023/04/02 09:08:50;;;;;;;9.73;4.40;;;7.30;99.90;;;;;;4932755;29;20023;-70
2023/04/02 09:11:26;;;;;;;6.93;3.80;;;7.60;99.90;;;;;;4929988;29;20027;-70
2023/04/02 09:13:57;;;;;;;7.10;3.45;;;7.50;99.90;;;;;;4927555;29;20039;-70
2023/04/02 09:16:36;;;;;;;7.45;4.18;;;7.60;99.90;;;;;;4929440;29;20051;-70
2023/04/02 09:19:12;;;;;;;7.82;3.38;;;7.70;99.90;;;;;;4924449;29;20032;-70
2023/04/02 09:21:45;;;;;;;9.68;3.35;;;7.80;99.90;;;;;;4921795;29;21010;-70
2023/04/02 09:24:14;;;;;;;8.10;3.80;;;7.70;99.90;;;;;;4922926;29;20040;-69
2023/04/02 09:26:40;;;;;;;6.95;3.35;;;7.70;99.90;;;;;;4926144;29;20509;-69
2023/04/02 09:29:12;;;;;;;9.20;3.80;;;7.70;99.90;;;;;;4922980;29;20031;-70
2023/04/02 09:31:45;;;;;;;8.02;3.63;;;7.60;99.90;;;;;;4927440;29;20477;-70
2023/04/02 09:34:28;;;;;;;6.78;3.28;;;7.70;99.90;;;;;;4921627;29;20046;-69
2023/04/02 09:36:54;;;;;;;7.93;3.60;;;7.60;99.90;;;;;;4931559;29;20031;-70
2023/04/02 09:39:24;;;;;;;9.75;3.70;;;7.70;99.90;;;;;;4923272;29;20059;-70
2023/04/02 09:41:51;;;;;;;7.90;3.20;;;7.70;99.90;;;;;;4943954;28;20400;-70
2023/04/02 09:44:30;;;;;;;9.65;2.92;;;7.70;99.90;;;;;;4924834;29;20036;-69
2023/04/02 09:46:58;;;;;;;5.53;3.00;;;7.70;99.90;;;;;;4926064;29;20036;-71
2023/04/02 09:49:31;;;;;;;6.40;3.00;;;7.70;99.90;;;;;;4922136;29;20860;-71
2023/04/02 09:52:08;;;;;;;7.85;3.35;;;7.90;99.90;;;;;;4932990;29;20098;-71
2023/04/02 09:54:40;;;;;;;7.32;3.13;;;7.90;99.90;;;;;;4929324;29;20032;-71
2023/04/02 09:57:22;;;;;;;5.65;3.13;;;7.90;99.90;;;;;;4923910;29;20028;-71
2023/04/02 10:00:11;;;;;;;6.03;2.95;;;8.00;99.90;;;;;;4929515;29;20028;-71
2023/04/02 10:02:36;;;;;;;7.00;2.97;;;8.10;99.90;;;;;;4942084;28;20028;-77
2023/04/02 10:05:05;;;;;;;6.35;2.92;;;8.10;99.90;;;;;;4930797;29;20051;-71
2023/04/02 10:07:33;;;;;;;10.55;3.00;;;8.10;99.90;;;;;;4932811;28;20032;-71
2023/04/02 10:10:14;;;;;;;7.35;3.08;;;8.00;99.90;;;;;;4931698;29;20072;-72
2023/04/02 10:12:42;;;;;;;10.02;2.97;;;7.90;99.90;;;;;;4926148;29;20031;-73
2023/04/02 10:15:19;;;;;;;9.18;3.63;;;7.90;99.90;;;;;;4930574;29;20027;-69
2023/04/02 10:17:53;;;;;;;6.72;3.22;;;7.90;99.90;;;;;;4928183;29;20066;-70
2023/04/02 10:20:25;;;;;;;5.25;2.90;;;8.00;99.90;;;;;;4931824;29;20016;-70
2023/04/02 10:22:50;;;;;;;5.70;2.83;;;8.10;99.90;;;;;;4925872;29;20051;-70
2023/04/02 10:25:20;;;;;;;8.88;2.95;;;8.10;99.90;;;;;;4925048;29;20126;-70
2023/04/02 10:28:11;;;;;;;4.88;2.75;;;8.30;99.90;;;;;;4927863;29;20099;-70
2023/04/02 10:30:51;;;;;;;6.68;2.80;;;8.30;99.90;;;;;;4925789;29;20500;-70
2023/04/02 10:33:23;;;;;;;5.82;2.63;;;8.40;99.90;;;;;;4929872;29;20028;-70
2023/04/02 10:36:06;;;;;;;7.00;2.78;;;8.30;99.90;;;;;;4926093;29;20031;-70
2023/04/02 10:38:58;;;;;;;7.47;2.70;;;8.30;99.90;;;;;;4927915;29;20028;-72
2023/04/02 10:41:59;;;;;;;6.18;2.97;;;8.40;99.90;;;;;;4942482;28;20028;-72
2023/04/02 10:44:38;;;;;;;3.83;2.72;;;8.40;99.90;;;;;;4933456;28;20106;-72
2023/04/02 10:47:08;;;;;;;6.45;2.95;;;8.50;99.90;;;;;;4925607;29;20035;-72
2023/04/02 10:49:54;;;;;;;4.43;2.53;;;8.50;99.90;;;;;;4924529;29;20092;-72
2023/04/02 10:52:33;;;;;;;4.78;2.92;;;8.50;99.90;;;;;;4930807;29;20032;-72
2023/04/02 10:55:07;;;;;;;4.55;2.33;;;8.40;99.90;;;;;;4929007;29;20032;-72
2023/04/02 10:57:38;;;;;;;7.88;2.55;;;8.50;99.90;;;;;;4930338;29;20026;-72
2023/04/02 11:00:15;;;;;;;7.05;2.50;;;8.50;99.90;;;;;;4926375;29;20050;-72
2023/04/02 11:03:00;;;;;;;6.85;2.85;;;8.50;99.90;;;;;;4930839;29;20024;-72
2023/04/02 11:05:56;;;;;;;5.57;2.80;;;8.60;99.90;;;;;;4924690;29;20043;-71
2023/04/02 11:08:42;;;;;;;8.88;2.75;;;8.40;99.90;;;;;;4926844;29;20044;-72
2023/04/02 11:11:16;;;;;;;6.57;2.45;;;8.50;99.90;;;;;;4926295;29;20027;-72
2023/04/02 11:13:57;;;;;;;6.70;2.70;;;8.40;99.90;;;;;;4932524;29;20023;-72
2023/04/02 11:16:23;;;;;;;5.30;2.00;;;8.20;99.90;;;;;;4923668;29;20122;-72
2023/04/02 11:19:19;;;;;;;4.47;2.08;;;8.30;99.90;;;;;;4936530;29;20058;-72
2023/04/02 11:21:59;;;;;;;7.90;2.10;;;8.10;99.90;;;;;;4925841;29;20409;-72
2023/04/02 11:24:35;;;;;;;3.38;2.15;;;7.90;99.90;;;;;;4929112;29;20473;-72
2023/04/02 11:27:09;;;;;;;7.75;2.45;;;7.90;99.90;;;;;;4930438;29;20024;-72
2023/04/02 11:29:41;;;;;;;6.63;2.45;;;7.90;99.90;;;;;;4929604;29;20087;-72
2023/04/02 11:32:26;;;;;;;3.50;2.23;;;8.00;99.90;;;;;;4929461;29;20102;-72
2023/04/02 11:34:52;;;;;;;6.20;2.45;;;8.10;99.90;;;;;;4921888;29;20024;-72
2023/04/02 11:37:38;;;;;;;6.03;2.15;;;8.20;99.90;;;;;;4925748;29;20032;-72
2023/04/02 11:40:12;;;;;;;8.98;2.55;;;8.30;99.90;;;;;;4935160;29;20067;-72
2023/04/02 11:42:48;;;;;;;6.65;2.45;;;8.40;99.90;;;;;;4923991;29;20019;-72
2023/04/02 11:45:20;;;;;;;9.65;2.40;;;8.30;99.90;;;;;;4930097;29;20035;-69
2023/04/02 11:48:00;;;;;;;2.90;2.13;;;8.40;99.90;;;;;;4923007;29;20032;-70
2023/04/02 11:50:36;;;;;;;6.22;2.25;;;8.30;99.90;;;;;;4930647;29;20032;-72
2023/04/02 11:53:03;;;;;;;7.63;3.10;;;8.40;99.90;;;;;;4921852;29;20020;-71
2023/04/02 11:55:33;;;;;;;7.65;2.45;;;8.40;99.90;;;;;;4928927;29;20023;-72
2023/04/02 11:58:19;;;;;;;8.30;2.47;;;8.50;99.90;;;;;;4931734;29;20481;-70
2023/04/02 12:01:04;;;;;;;6.95;2.78;;;8.40;99.90;;;;;;4921380;29;20031;-75
2023/04/02 12:04:06;;;;;;;7.05;2.42;;;8.50;99.90;;;;;;4927089;29;20020;-71
2023/04/02 12:06:59;;;;;;;4.80;2.00;;;8.60;99.90;;;;;;4933127;29;20048;-71
2023/04/02 12:09:41;;;;;;;6.60;2.85;;;8.60;99.90;;;;;;4934948;29;20044;-69
2023/04/02 12:12:27;;;;;;;4.30;2.28;;;8.30;99.90;;;;;;4932332;29;20083;-72
2023/04/02 12:14:57;;;;;;;4.53;2.15;;;8.50;99.90;;;;;;4927299;29;20024;-71
2023/04/02 12:17:37;;;;;;;4.90;2.42;;;8.30;99.90;;;;;;4926214;29;20054;-71
2023/04/02 12:20:07;;;;;;;4.15;2.30;;;8.50;99.90;;;;;;4926816;29;20118;-71
2023/04/02 12:22:36;;;;;;;7.60;2.40;;;8.70;99.90;;;;;;4926130;29;20504;-71
2023/04/02 12:25:21;;;;;;;4.28;2.38;;;8.70;99.90;;;;;;4930615;29;20032;-71
2023/04/02 12:27:47;;;;;;;6.15;2.40;;;8.70;99.90;;;;;;4928931;29;20024;-70
2023/04/02 12:30:17;;;;;;;3.63;2.15;;;8.80;99.90;;;;;;4934114;29;20028;-70
2023/04/02 12:32:43;;;;;;;3.80;2.45;;;8.80;99.90;;;;;;4924758;29;20034;-69
2023/04/02 12:35:32;;;;;;;5.28;2.17;;;8.80;99.90;;;;;;4930365;29;20024;-70
2023/04/02 12:37:57;;;;;;;7.38;2.55;;;8.90;99.90;;;;;;4926732;29;20549;-70
2023/04/02 12:40:24;;;;;;;7.68;2.40;;;8.90;99.90;;;;;;4930747;29;20021;-70
2023/04/02 12:42:50;;;;;;;6.50;2.33;;;9.10;99.90;;;;;;4921060;29;20043;-70
2023/04/02 12:45:29;;;;;;;5.60;2.15;;;9.10;99.90;;;;;;4926984;29;20028;-70
2023/04/02 12:47:55;;;;;;;5.15;1.98;;;9.00;99.90;;;;;;4922123;29;20134;-71
2023/04/02 12:50:22;;;;;;;4.07;2.10;;;9.00;99.90;;;;;;4926043;29;20102;-70
2023/04/02 12:52:53;;;;;;;3.78;2.30;;;9.00;99.90;;;;;;4930986;29;20032;-71
2023/04/02 12:55:22;;;;;;;5.72;2.00;;;9.00;99.90;;;;;;4925201;29;20059;-71
2023/04/02 12:57:48;;;;;;;6.05;2.63;;;9.20;99.90;;;;;;4921070;29;20076;-70
2023/04/02 13:00:20;;;;;;;4.13;2.13;;;9.20;99.90;;;;;;4925481;29;20023;-71
2023/04/02 13:02:49;;;;;;;4.22;2.40;;;9.10;99.90;;;;;;4926320;29;20036;-70
2023/04/02 13:05:34;;;;;;;6.68;2.28;;;8.90;99.90;;;;;;4923978;29;20039;-71
2023/04/02 13:08:00;;;;;;;8.05;2.45;;;8.90;99.90;;;;;;4922698;29;20035;-71
2023/04/02 13:10:27;;;;;;;6.28;2.22;;;9.00;99.90;;;;;;4928155;29;20024;-70
2023/04/02 13:12:58;;;;;;;2.55;2.28;;;9.00;99.90;;;;;;4926312;29;20130;-70
2023/04/02 13:15:35;;;;;;;4.78;2.30;;;8.90;99.90;;;;;;4922613;29;20020;-70
2023/04/02 13:18:23;;;;;;;3.40;2.20;;;8.70;99.90;;;;;;4923213;29;20036;-70
2023/04/02 13:20:56;;;;;;;3.92;1.98;;;8.70;99.90;;;;;;4924282;29;20121;-71
2023/04/02 13:23:31;;;;;;;4.07;2.28;;;8.80;99.90;;;;;;4925720;29;20039;-70
2023/04/02 13:26:17;;;;;;;7.13;2.78;;;8.80;99.90;;;;;;4924374;29;20557;-70
2023/04/02 13:29:15;;;;;;;4.75;2.85;;;8.70;99.90;;;;;;4922352;29;20072;-70
2023/04/02 13:31:41;;;;;;;4.95;2.75;;;8.90;99.90;;;;;;4923090;29;20100;-70